Time;durP1;ratioP1;P1;durP2;ratioP2;P2;SDS_P1;SDS_P2;PMS_P1;PMS_P2;Temp;Humidity;BMP_temperature;BMP_pressure;BME280_temperature;BME280_humidity;BME280_pressure;Samples;Min_cycle;Max_cycle;Signal;HPM_P1;HPM_P2
2022/01/02 00:02:50;;;;;;;;;;;;;;;10.45;83.44;101716.38;10444868;28;20045;-83
2022/01/02 00:08:08;;;;;;;8.75;5.80;;;;;;;10.31;84.50;101691.75;10461200;28;20303;-84
2022/01/02 00:13:14;;;;;;;8.57;5.53;;;;;;;10.16;85.68;101682.56;10468517;28;20068;-85
2022/01/02 00:18:17;;;;;;;8.30;5.80;;;;;;;10.15;85.76;101660.22;10481215;28;20069;-85
2022/01/02 00:23:23;;;;;;;7.80;4.65;;;;;;;10.15;85.92;101677.34;10496270;28;20052;-83
2022/01/02 00:28:26;;;;;;;12.93;5.72;;;;;;;10.23;84.72;101683.69;10499563;28;20115;-84
2022/01/02 00:33:28;;;;;;;11.73;5.68;;;;;;;10.15;85.42;101696.28;10522979;28;20036;-85
2022/01/02 00:38:30;;;;;;;8.32;5.22;;;;;;;10.07;85.88;101723.41;10500748;28;20044;-86
2022/01/02 00:44:09;;;;;;;11.57;5.35;;;;;;;10.00;86.14;101722.25;10491133;28;20045;-85
2022/01/02 00:49:12;;;;;;;8.25;5.25;;;;;;;9.95;86.10;101713.47;10491946;28;20060;-83
2022/01/02 00:54:46;;;;;;;8.30;5.05;;;;;;;9.92;86.64;101717.63;10485042;28;20044;-84
2022/01/02 01:00:03;;;;;;;11.13;5.80;;;;;;;9.97;86.06;101726.41;10490798;28;20056;-85
2022/01/02 01:05:09;;;;;;;8.10;5.03;;;;;;;9.96;85.92;101719.50;10491252;28;20068;-85
2022/01/02 01:10:11;;;;;;;8.10;5.97;;;;;;;9.96;86.21;101722.06;10456763;28;20079;-85
2022/01/02 01:15:13;;;;;;;10.65;6.20;;;;;;;9.98;85.82;101705.00;10459537;28;20411;-87
2022/01/02 01:20:15;;;;;;;9.75;5.45;;;;;;;9.99;85.97;101704.19;10465721;28;20058;-87
2022/01/02 01:25:18;;;;;;;10.43;4.93;;;;;;;9.92;86.48;101694.47;10460466;28;20511;-84
2022/01/02 01:30:23;;;;;;;13.50;5.25;;;;;;;9.84;87.27;101687.28;10471643;28;20050;-86
2022/01/02 01:35:25;;;;;;;8.35;5.13;;;;;;;9.84;87.34;101682.16;10506934;28;20446;-87
2022/01/02 01:40:36;;;;;;;10.02;5.03;;;;;;;9.74;88.39;101677.44;10465678;28;20056;-86
2022/01/02 01:45:38;;;;;;;9.07;6.07;;;;;;;9.76;88.35;101680.94;10445957;28;20095;-86
2022/01/02 01:50:42;;;;;;;9.45;6.20;;;;;;;9.69;89.08;101684.09;10458456;28;20578;-87
2022/01/02 01:55:56;;;;;;;15.65;5.68;;;;;;;9.66;89.05;101671.97;10473022;28;20053;-85
2022/01/02 02:01:02;;;;;;;12.85;5.78;;;;;;;9.60;90.18;101657.97;10456886;28;20123;-88
2022/01/02 02:06:14;;;;;;;9.38;5.57;;;;;;;9.55;90.37;101639.75;10486750;28;20040;-87
2022/01/02 02:11:17;;;;;;;13.07;5.97;;;;;;;9.51;90.90;101646.47;10458934;28;20458;-87
2022/01/02 02:16:19;;;;;;;10.55;6.13;;;;;;;9.48;91.22;101638.63;10447521;28;20063;-87
2022/01/02 02:21:32;;;;;;;11.18;5.90;;;;;;;9.47;91.12;101624.00;10471214;28;20094;-88
2022/01/02 02:26:37;;;;;;;13.02;5.70;;;;;;;9.55;91.48;101633.75;10466102;28;20097;-87
2022/01/02 02:31:42;;;;;;;11.45;5.03;;;;;;;9.59;91.19;101621.06;10431614;28;20045;-85
2022/01/02 02:36:47;;;;;;;10.10;4.90;;;;;;;9.59;91.37;101584.16;10460123;28;20062;-88
2022/01/02 02:41:48;;;;;;;9.27;4.72;;;;;;;9.61;91.55;101587.69;10468712;28;20535;-89
2022/01/02 02:52:29;;;;;;;10.23;5.03;;;;;;;9.65;90.96;101571.53;10495732;28;20054;-85
2022/01/02 02:57:33;;;;;;;15.40;5.60;;;;;;;9.70;90.76;101552.03;10496167;28;20040;-89
2022/01/02 03:02:34;;;;;;;11.98;5.97;;;;;;;9.84;90.27;101535.44;10454913;28;20291;-90
2022/01/02 03:07:36;;;;;;;10.18;5.40;;;;;;;9.87;90.67;101537.25;10467983;28;20044;-87
2022/01/02 03:12:38;;;;;;;11.35;4.32;;;;;;;9.92;90.52;101522.00;10444215;28;20496;-88
2022/01/02 03:17:40;;;;;;;11.52;4.55;;;;;;;9.94;90.66;101508.38;10449179;28;20040;-86
2022/01/02 03:22:42;;;;;;;11.50;4.25;;;;;;;10.07;90.60;101503.66;10455874;28;20044;-85
2022/01/02 03:27:45;;;;;;;18.00;5.35;;;;;;;10.15;90.69;101487.72;10445444;28;20075;-90
2022/01/02 03:32:47;;;;;;;10.27;4.20;;;;;;;10.19;90.44;101485.22;10464515;28;20044;-86
2022/01/02 03:37:51;;;;;;;9.45;4.10;;;;;;;10.36;90.01;101481.59;10462303;28;20060;-89
2022/01/02 03:42:53;;;;;;;13.07;4.63;;;;;;;10.36;89.91;101484.16;10462683;28;20059;-86
2022/01/02 03:47:56;;;;;;;15.63;4.63;;;;;;;10.36;89.86;101478.13;10472913;28;20037;-87
2022/01/02 03:52:58;;;;;;;10.35;4.07;;;;;;;10.38;89.35;101467.09;10467346;28;20170;-87
2022/01/02 03:58:00;;;;;;;9.40;3.50;;;;;;;10.40;89.71;101469.72;10469669;28;20041;-86
2022/01/02 04:03:03;;;;;;;16.67;5.05;;;;;;;10.39;89.48;101473.97;10462375;28;20095;-89
2022/01/02 04:08:05;;;;;;;13.75;4.40;;;;;;;10.57;88.73;101478.94;10484205;28;20488;-90
2022/01/02 04:13:07;;;;;;;11.43;4.32;;;;;;;10.58;88.63;101464.34;10484102;28;20098;-89
2022/01/02 04:18:09;;;;;;;14.02;4.40;;;;;;;10.63;88.31;101483.41;10485820;28;20051;-89
2022/01/02 04:23:11;;;;;;;14.73;4.20;;;;;;;10.62;88.14;101476.50;10479874;28;20404;-85
2022/01/02 04:28:13;;;;;;;13.48;4.13;;;;;;;10.57;88.74;101457.44;10461617;28;20131;-87
2022/01/02 04:33:15;;;;;;;11.35;4.47;;;;;;;10.50;89.19;101447.72;10479046;28;20492;-87
2022/01/02 04:38:17;;;;;;;10.40;4.45;;;;;;;10.45;89.39;101437.25;10439141;28;20562;-87
2022/01/02 04:43:19;;;;;;;15.57;4.25;;;;;;;10.40;89.81;101439.69;10467854;28;20044;-88
2022/01/02 04:48:23;;;;;;;12.48;4.82;;;;;;;10.42;90.00;101440.63;10460212;28;20037;-88
2022/01/02 04:53:25;;;;;;;14.18;5.00;;;;;;;10.39;90.69;101440.50;10466223;28;20396;-88
2022/01/02 04:58:29;;;;;;;10.73;4.57;;;;;;;10.36;91.03;101445.53;10486974;28;20049;-93
2022/01/02 05:03:31;;;;;;;14.55;4.35;;;;;;;10.35;90.72;101450.63;10452212;28;20386;-88
2022/01/02 05:08:34;;;;;;;16.00;5.30;;;;;;;10.33;91.53;101437.69;10449485;28;20504;-90
2022/01/02 05:13:40;;;;;;;16.73;5.15;;;;;;;10.34;91.99;101433.41;10489206;28;20365;-89
2022/01/02 05:18:42;;;;;;;12.90;5.03;;;;;;;10.35;92.07;101430.88;10465966;28;20060;-86
2022/01/02 05:23:44;;;;;;;17.52;5.60;;;;;;;10.30;92.23;101422.13;10458098;28;20041;-85
2022/01/02 05:28:47;;;;;;;16.10;4.65;;;;;;;10.32;92.29;101425.63;10487085;28;20045;-88
2022/01/02 05:33:53;;;;;;;11.55;4.57;;;;;;;10.27;92.84;101417.75;10451872;28;20044;-87
2022/01/02 05:38:55;;;;;;;17.65;5.60;;;;;;;10.23;93.51;101407.28;10447580;28;20041;-88
2022/01/02 05:43:57;;;;;;;19.42;5.05;;;;;;;10.20;93.93;101399.44;10450978;28;20522;-89
2022/01/02 05:49:00;;;;;;;11.63;4.22;;;;;;;10.12;94.19;101392.31;10487041;28;20068;-85
2022/01/02 05:54:06;;;;;;;15.77;5.38;;;;;;;10.20;93.93;101358.25;10452915;28;20044;-86
2022/01/02 05:59:07;;;;;;;11.48;4.47;;;;;;;10.14;94.44;101353.75;10483050;28;20507;-85
2022/01/02 06:04:10;;;;;;;14.45;5.40;;;;;;;10.11;94.07;101343.34;10435191;28;20048;-87
2022/01/02 06:09:13;;;;;;;11.40;4.43;;;;;;;10.12;94.03;101339.97;10448221;28;20048;-88
2022/01/02 06:14:17;;;;;;;14.73;4.68;;;;;;;10.16;93.47;101332.38;10477973;28;20044;-86
2022/01/02 06:19:18;;;;;;;14.98;5.60;;;;;;;10.18;93.63;101329.88;10459492;28;20063;-84
2022/01/02 06:24:21;;;;;;;11.93;5.28;;;;;;;10.14;93.81;101315.13;10474128;28;20044;-85
2022/01/02 06:29:23;;;;;;;15.43;5.35;;;;;;;10.02;93.98;101315.56;10459070;28;20102;-86
2022/01/02 06:34:26;;;;;;;15.48;6.05;;;;;;;10.00;94.06;101291.50;10467237;28;20047;-86
2022/01/02 06:39:28;;;;;;;25.60;4.97;;;;;;;9.96;94.25;101276.75;10459257;28;20045;-88
2022/01/02 06:44:35;;;;;;;13.07;5.45;;;;;;;9.99;94.32;101257.16;10462625;28;20040;-85
2022/01/02 06:49:41;;;;;;;12.18;4.72;;;;;;;9.93;93.78;101235.50;10439061;28;20454;-86
2022/01/02 06:54:43;;;;;;;12.18;4.80;;;;;;;9.89;94.23;101215.59;10458925;28;20076;-86
2022/01/02 06:59:46;;;;;;;19.15;5.88;;;;;;;9.98;93.67;101200.47;10460962;28;20045;-85
2022/01/02 07:04:49;;;;;;;12.23;4.63;;;;;;;9.91;94.01;101170.22;10441679;28;20052;-88
2022/01/02 07:09:51;;;;;;;13.85;5.43;;;;;;;9.90;93.84;101148.75;10453560;28;20048;-87
2022/01/02 07:14:53;;;;;;;14.18;5.55;;;;;;;9.89;94.10;101130.69;10479311;28;20052;-86
2022/01/02 07:19:54;;;;;;;14.27;5.20;;;;;;;9.88;93.23;101134.97;10468689;28;20044;-85
2022/01/02 07:24:57;;;;;;;18.58;5.85;;;;;;;9.93;93.09;101123.09;10494722;28;20045;-84
2022/01/02 07:29:59;;;;;;;13.00;5.07;;;;;;;9.94;92.84;101095.69;10474752;28;20052;-90
2022/01/02 07:35:01;;;;;;;11.70;4.50;;;;;;;9.88;93.09;101109.22;10455502;28;20075;-90
2022/01/02 07:40:04;;;;;;;20.10;6.25;;;;;;;9.86;92.96;101099.72;10455544;28;20064;-90
2022/01/02 07:45:07;;;;;;;10.93;4.60;;;;;;;9.82;92.96;101104.75;10452475;28;20041;-88
2022/01/02 07:50:09;;;;;;;16.83;4.45;;;;;;;9.83;93.06;101106.50;10444987;28;20625;-89
2022/01/02 07:55:11;;;;;;;14.63;4.72;;;;;;;9.89;92.62;101098.13;10449947;28;20208;-84
2022/01/02 08:00:13;;;;;;;17.25;4.88;;;;;;;9.83;92.65;101085.91;10471478;28;20036;-88
2022/01/02 08:05:15;;;;;;;16.02;5.28;;;;;;;9.88;91.88;101087.75;10459560;28;20072;-92
2022/01/02 08:10:20;;;;;;;10.52;4.82;;;;;;;9.89;91.33;101076.63;10454111;28;20106;-90
2022/01/02 08:15:25;;;;;;;12.20;3.97;;;;;;;9.82;91.61;101062.72;10479188;28;20041;-90
2022/01/02 08:20:29;;;;;;;10.70;4.38;;;;;;;9.84;91.34;101050.75;10471143;28;20075;-89
2022/01/02 08:25:34;;;;;;;14.75;4.82;;;;;;;9.86;91.46;101076.56;10481875;28;20041;-89
2022/01/02 08:30:41;;;;;;;15.15;5.43;;;;;;;9.99;90.34;101112.13;10467402;28;20045;-89
2022/01/02 08:35:44;;;;;;;14.30;5.68;;;;;;;9.91;90.48;101141.91;10457943;28;20127;-88
2022/01/02 08:40:50;;;;;;;16.13;6.43;;;;;;;9.82;91.27;101151.06;10438460;28;20045;-89
2022/01/02 08:45:51;;;;;;;16.88;5.82;;;;;;;9.80;92.28;101121.81;10453989;28;20136;-86
2022/01/02 08:50:53;;;;;;;14.80;5.53;;;;;;;9.68;92.58;101106.88;10478030;28;20048;-89
2022/01/02 08:55:55;;;;;;;13.38;6.80;;;;;;;9.77;92.24;101095.13;10480963;28;20049;-92
2022/01/02 09:00:57;;;;;;;11.63;5.85;;;;;;;9.74;92.24;101090.75;10471039;28;20170;-88
2022/01/02 09:05:59;;;;;;;15.50;5.55;;;;;;;9.80;91.85;101098.66;10472533;28;20149;-89
2022/01/02 09:11:03;;;;;;;12.35;5.40;;;;;;;9.88;91.20;101074.88;10452666;28;20047;-89
2022/01/02 09:16:05;;;;;;;10.23;4.82;;;;;;;9.98;90.59;101043.47;10473702;28;20063;-87
2022/01/02 09:21:08;;;;;;;10.75;5.13;;;;;;;10.03;90.04;101089.94;10475721;28;20071;-91
2022/01/02 09:26:10;;;;;;;12.05;4.75;;;;;;;10.27;88.81;101088.13;10459413;28;20107;-91
2022/01/02 09:31:12;;;;;;;15.40;5.40;;;;;;;10.20;89.42;101070.72;10451089;28;20072;-92
2022/01/02 09:36:14;;;;;;;10.95;3.90;;;;;;;10.43;87.45;101074.03;10532135;28;20074;-85
2022/01/02 09:41:19;;;;;;;11.50;3.85;;;;;;;10.41;87.16;101059.38;10457068;28;20136;-89
2022/01/02 09:46:26;;;;;;;10.73;3.35;;;;;;;10.62;84.59;101064.22;10491244;28;20072;-89
2022/01/02 09:51:31;;;;;;;10.43;3.47;;;;;;;10.62;84.13;101064.22;10457729;28;20047;-92
2022/01/02 09:56:32;;;;;;;7.72;3.30;;;;;;;10.61;84.83;101067.66;10469925;28;20047;-88
2022/01/02 10:01:46;;;;;;;5.53;3.55;;;;;;;10.81;82.67;101065.63;10466256;28;20035;-91
2022/01/02 10:06:50;;;;;;;9.73;3.60;;;;;;;10.83;82.48;101060.53;10481865;28;20044;-87
2022/01/02 10:11:52;;;;;;;7.40;3.28;;;;;;;10.83;82.79;101057.97;10457843;28;20496;-88
2022/01/02 10:16:58;;;;;;;8.60;3.35;;;;;;;10.93;82.19;101052.19;10465884;28;20504;-85
2022/01/02 10:22:04;;;;;;;6.28;3.22;;;;;;;11.00;82.09;101043.78;10452988;28;20135;-87
2022/01/02 10:27:21;;;;;;;11.35;3.65;;;;;;;11.04;82.45;101037.91;10454453;28;20052;-88
2022/01/02 10:32:36;;;;;;;8.95;3.72;;;;;;;11.10;81.94;101048.38;10470225;28;20044;-87
2022/01/02 10:37:53;;;;;;;7.38;3.58;;;;;;;11.38;81.71;101059.38;10470325;28;20044;-88
2022/01/02 10:42:56;;;;;;;8.80;3.65;;;;;;;11.38;80.25;101056.81;10482052;28;20474;-88
2022/01/02 10:47:58;;;;;;;7.75;3.80;;;;;;;11.43;80.30;101055.19;10485059;28;20128;-85
2022/01/02 10:53:17;;;;;;;9.85;3.92;;;;;;;11.47;80.83;101042.38;10476784;28;20075;-86
2022/01/02 10:58:19;;;;;;;7.88;3.65;;;;;;;11.57;79.60;101044.38;10460295;28;20056;-85
2022/01/02 11:03:28;;;;;;;9.27;3.80;;;;;;;11.64;79.35;101051.44;10442214;28;20052;-86
2022/01/02 11:08:34;;;;;;;8.82;3.25;;;;;;;11.69;79.21;101034.31;10486986;28;20049;-87
2022/01/02 11:13:36;;;;;;;8.45;3.88;;;;;;;11.83;78.97;101041.50;10446381;28;20073;-84
2022/01/02 11:18:43;;;;;;;6.47;4.18;;;;;;;11.81;78.08;101022.53;10469022;28;20045;-84
2022/01/02 11:23:54;;;;;;;7.13;3.63;;;;;;;11.67;79.25;101041.16;10468588;28;20411;-86
2022/01/02 11:29:05;;;;;;;11.40;3.40;;;;;;;11.67;78.63;101041.16;10471811;28;20049;-86
2022/01/02 11:34:24;;;;;;;7.47;3.80;;;;;;;11.59;79.05;101042.69;10480569;28;20053;-86
2022/01/02 11:39:26;;;;;;;7.75;4.00;;;;;;;11.54;79.80;101049.44;10474783;28;20041;-85
2022/01/02 11:44:47;;;;;;;12.13;4.07;;;;;;;11.65;78.36;101027.38;10485266;28;20048;-86
2022/01/02 11:50:30;;;;;;;6.97;3.78;;;;;;;11.64;78.73;101030.78;10473906;28;20069;-87
2022/01/02 11:55:32;;;;;;;9.65;3.80;;;;;;;11.51;79.89;101023.56;10504032;28;20028;-82
2022/01/02 12:00:38;;;;;;;11.45;3.70;;;;;;;11.58;79.22;101025.44;10521842;28;20147;-86
2022/01/02 12:06:36;;;;;;;10.82;3.88;;;;;;;11.55;79.15;101026.25;10478660;28;20049;-86
2022/01/02 12:11:40;;;;;;;8.68;3.95;;;;;;;11.61;79.54;101010.03;10355183;28;20048;-86
2022/01/02 12:16:50;;;;;;;12.32;4.07;;;;;;;11.64;79.55;101012.72;10480569;28;20055;-84
2022/01/02 12:22:12;;;;;;;8.98;3.33;;;;;;;11.67;80.24;101005.03;10472903;28;20049;-86
2022/01/02 12:27:16;;;;;;;13.23;3.67;;;;;;;11.72;79.26;101007.72;10497140;28;20131;-86
2022/01/02 12:32:20;;;;;;;8.88;3.80;;;;;;;11.69;80.02;101002.50;10472271;28;20048;-85
2022/01/02 12:37:28;;;;;;;8.20;3.67;;;;;;;11.71;79.41;100996.53;10448347;28;20041;-84
2022/01/02 12:42:30;;;;;;;7.55;3.35;;;;;;;11.67;79.95;100986.97;10466951;28;20053;-85
2022/01/02 12:47:32;;;;;;;6.78;3.05;;;;;;;11.75;79.04;101008.66;10474976;28;20047;-84
2022/01/02 12:52:34;;;;;;;11.00;3.05;;;;;;;11.81;79.10;101007.03;10476382;28;20397;-85
2022/01/02 12:57:36;;;;;;;9.05;3.67;;;;;;;11.90;78.30;101013.31;10452343;28;20048;-85
2022/01/02 13:02:38;;;;;;;10.00;3.88;;;;;;;11.84;79.13;101012.28;10496844;28;20048;-86
2022/01/02 13:07:40;;;;;;;10.68;3.20;;;;;;;11.75;80.19;101016.41;10505902;28;20488;-85
2022/01/02 13:12:44;;;;;;;12.73;3.45;;;;;;;11.77;79.69;101023.31;10459858;28;20053;-83
2022/01/02 13:17:53;;;;;;;11.95;3.05;;;;;;;11.85;80.06;101034.69;10447908;28;20056;-86
2022/01/02 13:22:56;;;;;;;;;;;;;;;11.89;79.21;101023.56;10449687;28;20052;-83
2022/01/02 13:28:09;;;;;;;9.75;3.63;;;;;;;11.87;80.31;101033.03;10447138;28;20019;-85
2022/01/02 13:33:26;;;;;;;12.38;3.60;;;;;;;12.02;79.43;101033.41;10467783;28;20068;-81
2022/01/02 13:38:28;;;;;;;9.30;3.15;;;;;;;12.15;77.95;101028.50;10458575;28;20052;-83
2022/01/02 13:43:30;;;;;;;12.75;3.20;;;;;;;12.08;78.09;101031.78;10494281;28;20045;-83
2022/01/02 13:48:32;;;;;;;12.43;3.00;;;;;;;12.05;78.31;101041.19;10456356;28;20460;-82
2022/01/02 13:53:36;;;;;;;9.07;3.35;;;;;;;12.04;77.94;101029.13;10468676;28;20407;-82
2022/01/02 13:58:49;;;;;;;15.93;3.33;;;;;;;12.09;77.27;101028.34;10438199;28;20497;-82
2022/01/02 14:03:59;;;;;;;5.75;2.17;;;;;;;11.96;77.53;101028.03;10450374;28;20063;-83
2022/01/02 14:09:13;;;;;;;9.75;2.90;;;;;;;11.91;77.81;101039.97;10433682;28;20049;-84
2022/01/02 14:14:21;;;;;;;10.27;2.67;;;;;;;11.93;76.59;101047.75;10498347;28;20073;-81
2022/01/02 14:19:23;;;;;;;9.40;2.47;;;;;;;11.82;77.40;101060.41;10470737;28;20045;-82
2022/01/02 14:24:25;;;;;;;9.10;2.13;;;;;;;11.68;78.02;101068.72;10469490;28;20047;-83
2022/01/02 14:29:27;;;;;;;12.35;3.20;;;;;;;11.55;78.00;101069.25;10484646;28;20045;-83
2022/01/02 14:34:30;;;;;;;13.85;2.80;;;;;;;11.39;78.85;101071.44;10493879;28;20511;-83
2022/01/02 14:39:35;;;;;;;8.02;1.80;;;;;;;11.27;78.62;101076.31;10442711;28;20485;-82
2022/01/02 14:44:38;;;;;;;10.80;1.88;;;;;;;11.25;78.54;101086.56;10486865;28;20128;-82
2022/01/02 14:50:03;;;;;;;11.52;2.38;;;;;;;11.13;78.87;101078.50;10462891;28;20041;-81
2022/01/02 14:55:08;;;;;;;11.68;1.95;;;;;;;10.99;79.31;101080.72;10461656;28;20123;-83
2022/01/02 15:00:14;;;;;;;11.00;1.90;;;;;;;10.89;79.55;101089.03;10439291;28;20040;-81
2022/01/02 15:05:16;;;;;;;7.63;1.35;;;;;;;10.73;80.62;101088.63;10449567;28;20109;-83
2022/01/02 15:10:18;;;;;;;13.85;1.83;;;;;;;10.69;80.63;101081.63;10433029;28;20068;-83
2022/01/02 15:15:21;;;;;;;10.77;1.70;;;;;;;10.57;81.48;101083.84;10443649;28;20515;-83
2022/01/02 15:20:23;;;;;;;10.95;1.95;;;;;;;10.63;81.09;101092.63;10461559;28;20047;-82
2022/01/02 15:25:26;;;;;;;10.48;2.05;;;;;;;10.63;80.78;101091.75;10454244;28;20068;-82
2022/01/02 15:30:29;;;;;;;14.23;2.80;;;;;;;10.56;81.06;101097.56;10452810;28;20041;-82
2022/01/02 15:35:31;;;;;;;16.90;1.80;;;;;;;10.45;81.91;101087.84;10492836;28;20037;-83
2022/01/02 15:40:33;;;;;;;15.75;2.72;;;;;;;10.58;81.50;101089.03;10480098;28;20040;-81
2022/01/02 15:45:35;;;;;;;16.77;2.20;;;;;;;10.56;81.78;101084.69;10501812;28;20087;-83
2022/01/02 15:50:37;;;;;;;19.25;1.88;;;;;;;10.55;81.87;101098.38;10485502;28;20052;-83
2022/01/02 15:55:39;;;;;;;16.48;2.55;;;;;;;10.53;82.28;101094.91;10463967;28;20045;-85
2022/01/02 16:00:51;;;;;;;11.30;1.98;;;;;;;10.50;82.18;101084.50;10445731;28;20051;-84
2022/01/02 16:06:06;;;;;;;9.23;1.85;;;;;;;10.44;82.84;101101.53;10466980;28;20139;-82
2022/01/02 16:11:08;;;;;;;15.90;2.15;;;;;;;10.49;82.68;101109.41;10449720;28;20408;-83
2022/01/02 16:16:09;;;;;;;14.43;2.30;;;;;;;10.57;82.34;101096.72;10488983;28;20464;-81
2022/01/02 16:21:11;;;;;;;10.77;2.22;;;;;;;10.51;82.16;101091.41;10470526;28;20102;-83
2022/01/02 16:26:13;;;;;;;13.15;2.20;;;;;;;10.32;83.32;101090.81;10469271;28;20041;-83
2022/01/02 16:31:16;;;;;;;23.30;3.20;;;;;;;10.39;83.22;101072.16;10454890;28;20164;-83
2022/01/02 16:36:20;;;;;;;20.95;2.67;;;;;;;10.32;83.81;101085.66;10475241;28;20045;-84
2022/01/02 16:41:22;;;;;;;19.35;2.83;;;;;;;10.31;83.85;101089.09;10455596;28;20056;-82
2022/01/02 16:46:23;;;;;;;16.05;3.38;;;;;;;10.33;84.08;101079.69;10506622;28;20152;-82
2022/01/02 16:51:25;;;;;;;13.90;3.00;;;;;;;10.30;84.22;101072.75;10463267;28;20136;-84
2022/01/02 16:56:27;;;;;;;18.05;3.42;;;;;;;10.30;84.58;101072.75;10447214;28;20386;-85
2022/01/02 17:01:29;;;;;;;19.02;3.25;;;;;;;10.22;84.94;101063.91;10448113;28;20136;-84
2022/01/02 17:06:31;;;;;;;15.63;2.75;;;;;;;10.18;85.41;101064.66;10449466;28;20044;-85
2022/01/02 17:11:34;;;;;;;21.80;3.08;;;;;;;10.19;85.52;101061.28;10449588;28;20045;-84
2022/01/02 17:16:36;;;;;;;17.08;3.53;;;;;;;10.11;86.03;101047.28;10448413;28;20067;-84
2022/01/02 17:21:37;;;;;;;20.02;4.10;;;;;;;10.15;85.82;101051.69;10450388;28;20072;-84
2022/01/02 17:26:39;;;;;;;14.45;4.32;;;;;;;10.19;85.97;101057.81;10452475;28;20472;-84
2022/01/02 17:31:59;;;;;;;16.83;3.38;;;;;;;10.13;86.61;101056.81;10450633;28;20128;-84
2022/01/02 17:37:02;;;;;;;15.23;3.95;;;;;;;10.07;86.92;101045.44;10452248;28;20408;-83
2022/01/02 17:42:05;;;;;;;22.80;5.40;;;;;;;10.07;86.85;101032.56;10482440;28;20052;-83
2022/01/02 17:47:07;;;;;;;20.15;4.20;;;;;;;9.99;86.99;101030.63;10516383;28;20437;-84
2022/01/02 17:52:09;;;;;;;19.98;4.38;;;;;;;9.94;87.13;101021.91;10555352;28;20040;-83
2022/01/02 17:57:11;;;;;;;35.00;5.57;;;;;;;9.91;87.81;101005.50;10553400;28;20118;-83
2022/01/02 18:02:13;;;;;;;27.35;5.28;;;;;;;9.82;88.19;101000.97;10551188;28;20054;-83
2022/01/02 18:07:15;;;;;;;21.25;4.75;;;;;;;9.77;89.00;100992.22;10553237;28;20388;-83
2022/01/02 18:12:18;;;;;;;17.10;4.30;;;;;;;9.77;89.04;100977.66;10517884;28;20151;-84
2022/01/02 18:17:20;;;;;;;22.85;4.32;;;;;;;9.80;88.83;100982.03;10475693;28;20139;-84
2022/01/02 18:22:22;;;;;;;17.40;4.28;;;;;;;9.77;89.16;100972.50;10491870;28;20150;-83
2022/01/02 18:27:24;;;;;;;23.08;4.97;;;;;;;9.73;89.46;100967.22;10489987;28;20040;-83
2022/01/02 18:32:25;;;;;;;30.15;6.13;;;;;;;9.71;89.54;100951.75;10479413;28;20053;-83
2022/01/02 18:37:43;;;;;;;24.55;6.15;;;;;;;9.73;89.06;100952.66;10468403;28;20511;-84
2022/01/02 18:42:48;;;;;;;18.83;6.18;;;;;;;9.83;88.02;100946.97;10479844;28;20068;-83
2022/01/02 18:47:49;;;;;;;21.33;5.45;;;;;;;9.93;87.38;100931.78;10452526;28;20045;-84
2022/01/02 18:52:51;;;;;;;14.80;4.60;;;;;;;10.08;85.81;100927.09;10450270;28;20183;-85
2022/01/02 18:57:53;;;;;;;18.02;4.15;;;;;;;10.12;85.64;100913.47;10498075;28;20037;-87
2022/01/02 19:02:55;;;;;;;11.15;3.08;;;;;;;10.15;85.62;100910.97;10496978;28;20071;-85
2022/01/02 19:07:57;;;;;;;15.73;3.47;;;;;;;9.98;87.30;100907.06;10471077;28;20053;-86
2022/01/02 19:12:59;;;;;;;16.38;3.47;;;;;;;9.99;86.92;100888.22;10471792;28;20036;-85
2022/01/02 19:18:01;;;;;;;17.80;3.95;;;;;;;10.05;86.29;100875.50;10529478;28;20475;-86
2022/01/02 19:23:09;;;;;;;13.48;3.35;;;;;;;10.04;86.55;100862.59;10471466;28;20045;-83
2022/01/02 19:28:11;;;;;;;11.10;3.80;;;;;;;10.05;87.06;100841.19;10458140;28;20037;-85
2022/01/02 19:33:13;;;;;;;12.82;3.47;;;;;;;9.95;88.40;100847.75;10462671;28;20144;-87
2022/01/02 19:38:15;;;;;;;9.70;3.30;;;;;;;9.90;88.96;100829.66;10484916;28;20044;-86
2022/01/02 19:43:17;;;;;;;9.77;3.85;;;;;;;9.86;89.51;100816.66;10480379;28;20508;-88
2022/01/02 19:48:19;;;;;;;12.52;3.80;;;;;;;9.81;89.69;100801.94;10464919;28;20044;-87
2022/01/02 19:53:21;;;;;;;13.73;4.32;;;;;;;9.80;90.02;100802.75;10448776;28;20044;-87
2022/01/02 19:58:23;;;;;;;10.40;3.95;;;;;;;9.80;89.95;100799.34;10459453;28;20044;-88
2022/01/02 20:03:26;;;;;;;12.30;4.13;;;;;;;9.82;90.21;100790.81;10471674;28;20043;-88
2022/01/02 20:08:28;;;;;;;12.45;3.70;;;;;;;9.83;90.44;100792.56;10485434;28;20094;-86
2022/01/02 20:13:32;;;;;;;12.43;3.88;;;;;;;9.79;91.34;100790.72;10490410;28;20135;-87
2022/01/02 20:18:36;;;;;;;9.82;4.40;;;;;;;9.60;92.97;100778.19;10467936;28;20068;-88
2022/01/02 20:23:42;;;;;;;10.25;5.00;;;;;;;9.62;93.55;100786.84;10463049;28;20040;-90
2022/01/02 20:28:46;;;;;;;9.93;4.18;;;;;;;9.49;94.06;100765.91;10466381;28;20099;-87
2022/01/02 20:33:49;;;;;;;9.68;4.05;;;;;;;9.45;94.30;100756.38;10458199;28;20561;-89
2022/01/02 20:38:51;;;;;;;7.07;3.13;;;;;;;9.47;93.42;100754.72;10461613;28;20076;-89
2022/01/02 20:43:53;;;;;;;5.85;2.53;;;;;;;9.42;92.68;100747.69;10454414;28;20048;-89
2022/01/02 20:48:56;;;;;;;3.95;2.00;;;;;;;9.32;93.34;100747.44;10477492;28;20151;-89
2022/01/02 20:53:58;;;;;;;5.10;2.55;;;;;;;9.34;93.23;100765.50;10473284;28;20076;-88
2022/01/02 20:59:05;;;;;;;3.95;2.03;;;;;;;9.32;93.09;100760.28;10494332;28;20045;-88
2022/01/02 21:04:58;;;;;;;5.68;2.15;;;;;;;9.37;92.54;100752.69;10489443;28;20492;-88
2022/01/02 21:10:01;;;;;;;6.60;2.30;;;;;;;9.36;92.37;100754.41;10492742;28;20384;-88
2022/01/02 21:15:05;;;;;;;4.38;1.75;;;;;;;9.42;91.22;100763.97;10489510;28;20063;-90
2022/01/02 21:20:11;;;;;;;5.32;2.00;;;;;;;9.50;90.19;100753.94;10497018;28;20055;-90
2022/01/02 21:25:15;;;;;;;9.80;1.83;;;;;;;9.50;89.48;100756.50;10502125;28;20056;-89
2022/01/02 21:30:18;;;;;;;6.13;1.63;;;;;;;9.60;88.31;100766.22;10476773;28;20136;-87
2022/01/02 21:35:23;;;;;;;8.00;1.92;;;;;;;9.73;87.81;100774.28;10462960;28;20076;-86
2022/01/02 21:40:27;;;;;;;6.18;1.60;;;;;;;9.73;87.11;100775.13;10472048;28;20115;-88
2022/01/02 21:45:29;;;;;;;7.53;1.80;;;;;;;9.71;87.04;100769.09;10485770;28;20551;-85
2022/01/02 21:50:34;;;;;;;6.97;1.55;;;;;;;9.78;86.02;100789.00;10493878;28;20040;-85
2022/01/02 21:55:36;;;;;;;11.95;1.80;;;;;;;9.82;85.20;100788.25;10494528;28;20040;-86
2022/01/02 22:00:39;;;;;;;10.95;2.13;;;;;;;9.83;84.51;100792.56;10479086;28;20115;-88
2022/01/02 22:05:46;;;;;;;10.05;2.53;;;;;;;9.86;83.31;100796.06;10487739;28;20049;-86
2022/01/02 22:10:49;;;;;;;15.02;1.95;;;;;;;9.75;84.15;100819.78;10461990;28;20507;-84
2022/01/02 22:15:53;;;;;;;15.18;2.05;;;;;;;9.78;83.34;100830.19;10466565;28;20407;-86
2022/01/02 22:21:22;;;;;;;15.38;2.10;;;;;;;9.80;81.71;100838.78;10470602;28;20129;-84
2022/01/02 22:26:34;;;;;;;14.43;1.90;;;;;;;9.73;81.36;100860.03;10478393;28;20048;-85
2022/01/02 22:31:37;;;;;;;9.23;1.25;;;;;;;9.81;80.31;100868.84;10475681;28;20474;-86
2022/01/02 22:36:40;;;;;;;15.68;2.00;;;;;;;9.86;79.35;100873.25;10466925;28;20114;-84
2022/01/02 22:41:43;;;;;;;16.52;2.08;;;;;;;9.78;79.35;100879.06;10458230;28;20053;-85
2022/01/02 22:46:45;;;;;;;6.97;1.42;;;;;;;9.72;80.14;100890.88;10460062;28;20518;-86
2022/01/02 22:51:49;;;;;;;15.10;2.03;;;;;;;9.64;80.54;100895.81;10495612;28;20051;-84
2022/01/02 22:57:05;;;;;;;10.80;1.88;;;;;;;9.65;79.84;100919.00;10484035;28;20059;-84
2022/01/02 23:02:06;;;;;;;18.60;2.30;;;;;;;9.63;80.37;100930.06;10503660;28;20044;-85
2022/01/02 23:07:08;;;;;;;14.60;1.98;;;;;;;9.39;81.45;100928.47;10479756;28;20048;-84
2022/01/02 23:12:10;;;;;;;8.63;1.70;;;;;;;9.32;81.91;100931.69;10464218;28;20059;-83
2022/01/02 23:17:15;;;;;;;15.75;1.70;;;;;;;9.41;81.27;100925.94;10485163;28;20048;-83
2022/01/02 23:22:19;;;;;;;12.27;1.95;;;;;;;9.41;81.53;100931.97;10500032;28;20052;-81